createdAt,value
2023-01-03T00:00:41.082Z,6.00
2023-01-03T00:03:28.979Z,5.80
2023-01-03T00:05:56.823Z,5.70
2023-01-03T00:08:24.656Z,5.00
2023-01-03T00:10:52.489Z,4.80
2023-01-03T00:13:20.442Z,4.50
2023-01-03T00:15:48.314Z,3.70
2023-01-03T00:18:16.173Z,3.50
2023-01-03T00:20:44.120Z,3.30
2023-01-03T00:23:11.989Z,3.70
2023-01-03T00:25:39.812Z,3.50
2023-01-03T00:28:07.701Z,3.40
2023-01-03T00:30:35.812Z,3.10
2023-01-03T00:33:04.158Z,3.50
2023-01-03T00:35:32.392Z,3.30
2023-01-03T00:38:00.242Z,3.70
2023-01-03T00:40:28.056Z,3.70
2023-01-03T00:43:14.604Z,3.70
2023-01-03T00:45:42.472Z,3.40
2023-01-03T00:48:10.343Z,3.40
2023-01-03T00:50:38.280Z,3.40
2023-01-03T00:53:06.134Z,3.60
2023-01-03T00:55:34.969Z,3.90
2023-01-03T00:58:02.855Z,4.10
2023-01-03T01:00:30.897Z,4.40
2023-01-03T01:02:58.976Z,4.20
2023-01-03T01:05:29.690Z,3.60
2023-01-03T01:07:58.154Z,3.20
2023-01-03T01:10:26.049Z,3.70
2023-01-03T01:12:58.356Z,3.90
2023-01-03T01:15:26.184Z,3.50
2023-01-03T01:17:54.037Z,3.50
2023-01-03T01:20:21.902Z,3.30
2023-01-03T01:22:49.765Z,2.80
2023-01-03T01:25:17.625Z,2.70
2023-01-03T01:27:45.530Z,3.30
2023-01-03T01:30:13.645Z,2.90
2023-01-03T01:32:41.523Z,2.70
2023-01-03T01:35:09.575Z,2.90
2023-01-03T01:37:37.410Z,3.00
2023-01-03T01:40:05.781Z,3.20
2023-01-03T01:42:52.103Z,4.00
2023-01-03T01:45:19.904Z,3.30
2023-01-03T01:47:54.893Z,3.90
2023-01-03T01:50:35.004Z,3.50
2023-01-03T01:53:07.347Z,4.10
2023-01-03T01:55:41.227Z,3.30
2023-01-03T01:58:10.045Z,3.50
2023-01-03T02:00:39.891Z,3.00
2023-01-03T02:03:08.203Z,2.90
2023-01-03T02:05:39.432Z,2.70
2023-01-03T02:08:07.341Z,3.10
2023-01-03T02:11:03.029Z,2.80
2023-01-03T02:13:38.419Z,3.10
2023-01-03T02:16:41.843Z,2.70
2023-01-03T02:19:32.388Z,2.40
2023-01-03T02:22:34.075Z,2.40
2023-01-03T02:25:23.394Z,2.20
2023-01-03T02:28:00.410Z,2.20
2023-01-03T02:30:48.276Z,2.20
2023-01-03T02:33:22.209Z,1.80
2023-01-03T02:36:26.429Z,2.00
2023-01-03T02:39:09.762Z,1.90
2023-01-03T02:42:16.856Z,2.10
2023-01-03T02:45:40.091Z,1.80
2023-01-03T02:48:28.862Z,1.60
2023-01-03T02:51:00.824Z,1.50
2023-01-03T02:53:37.973Z,1.60
2023-01-03T02:56:10.268Z,1.90
2023-01-03T02:58:40.532Z,1.20
2023-01-03T03:01:11.250Z,1.40
2023-01-03T03:03:40.959Z,1.30
2023-01-03T03:06:08.985Z,1.30
2023-01-03T03:08:37.179Z,1.20
2023-01-03T03:11:23.781Z,1.50
2023-01-03T03:14:08.785Z,2.10
2023-01-03T03:16:49.643Z,2.70
2023-01-03T03:19:44.219Z,2.10
2023-01-03T03:23:06.103Z,1.80
2023-01-03T03:25:41.996Z,1.80
2023-01-03T03:28:34.015Z,1.40
2023-01-03T03:31:32.246Z,1.30
2023-01-03T03:34:08.936Z,1.50
2023-01-03T03:36:58.136Z,1.20
2023-01-03T03:39:46.846Z,1.20
2023-01-03T03:42:54.916Z,1.30
2023-01-03T03:45:30.227Z,1.40
2023-01-03T03:48:06.198Z,1.30
2023-01-03T03:50:43.068Z,1.20
2023-01-03T03:53:12.644Z,1.20
2023-01-03T03:55:47.782Z,1.40
2023-01-03T03:58:21.339Z,1.40
2023-01-03T04:03:21.628Z,1.60
2023-01-03T04:05:57.192Z,1.50
2023-01-03T04:08:25.120Z,1.40
2023-01-03T04:11:05.490Z,1.50
2023-01-03T04:13:35.404Z,1.60
2023-01-03T04:16:04.316Z,1.40
2023-01-03T04:18:33.211Z,1.40
2023-01-03T04:21:01.337Z,1.30
2023-01-03T04:23:29.283Z,1.40
2023-01-03T04:25:57.148Z,1.40
2023-01-03T04:28:25.124Z,1.40
2023-01-03T04:30:53.054Z,1.40
2023-01-03T04:33:20.924Z,1.40
2023-01-03T04:35:48.759Z,1.60
2023-01-03T04:38:16.905Z,1.80
2023-01-03T04:40:44.721Z,1.50
2023-01-03T04:43:31.284Z,1.90
2023-01-03T04:45:59.334Z,1.90
2023-01-03T04:48:27.293Z,2.00
2023-01-03T04:50:57.511Z,2.00
2023-01-03T04:53:26.778Z,1.80
2023-01-03T04:55:56.906Z,1.90
2023-01-03T04:58:25.271Z,1.60
2023-01-03T05:00:59.017Z,2.20
2023-01-03T05:03:28.056Z,2.00
2023-01-03T05:06:05.658Z,2.20
2023-01-03T05:08:34.064Z,2.20
2023-01-03T05:11:02.738Z,2.40
2023-01-03T05:13:30.923Z,2.00
2023-01-03T05:16:05.137Z,2.00
2023-01-03T05:18:33.534Z,2.00
2023-01-03T05:21:34.202Z,2.10
2023-01-03T05:24:21.248Z,2.50
2023-01-03T05:26:49.732Z,2.40
2023-01-03T05:29:21.026Z,2.60
2023-01-03T05:31:49.616Z,2.90
2023-01-03T05:34:17.620Z,2.80
2023-01-03T05:36:45.570Z,2.30
2023-01-03T05:39:13.598Z,2.10
2023-01-03T05:42:00.261Z,2.40
2023-01-03T05:44:30.626Z,2.30
2023-01-03T05:47:00.709Z,2.60
2023-01-03T05:49:28.671Z,2.70
2023-01-03T05:51:56.547Z,2.50
2023-01-03T05:54:24.845Z,3.70
2023-01-03T05:56:52.773Z,3.40
2023-01-03T05:59:21.244Z,3.10
2023-01-03T06:01:49.671Z,3.10
2023-01-03T06:04:17.732Z,3.00
2023-01-03T06:06:45.605Z,3.00
2023-01-03T06:09:13.459Z,2.80
2023-01-03T06:11:41.362Z,3.10
2023-01-03T06:14:10.206Z,3.30
2023-01-03T06:16:56.922Z,2.60
2023-01-03T06:19:25.377Z,3.30
2023-01-03T06:21:53.269Z,3.10
2023-01-03T06:24:21.167Z,2.90
2023-01-03T06:26:49.269Z,3.30
2023-01-03T06:29:17.209Z,3.20
2023-01-03T06:31:45.069Z,3.30
2023-01-03T06:34:13.012Z,3.00
2023-01-03T06:36:40.945Z,3.00
2023-01-03T06:39:09.012Z,3.30
2023-01-03T06:41:37.053Z,2.70
2023-01-03T06:44:05.187Z,3.40
2023-01-03T06:46:51.763Z,3.20
2023-01-03T06:49:38.324Z,3.50
2023-01-03T06:52:32.806Z,3.60
2023-01-03T06:55:01.313Z,3.10
2023-01-03T06:57:29.209Z,3.10
2023-01-03T06:59:57.211Z,3.50
2023-01-03T07:02:25.320Z,4.10
2023-01-03T07:04:53.732Z,4.50
2023-01-03T07:07:21.612Z,5.70
2023-01-03T07:09:50.699Z,3.60
2023-01-03T07:12:37.975Z,3.80
2023-01-03T07:15:06.559Z,3.40
2023-01-03T07:17:34.494Z,4.40
2023-01-03T07:20:02.590Z,4.10
2023-01-03T07:22:30.655Z,4.10
2023-01-03T07:24:58.637Z,7.90
2023-01-03T07:27:26.615Z,6.80
2023-01-03T07:29:54.955Z,5.70
2023-01-03T07:32:22.819Z,6.70
2023-01-03T07:34:50.712Z,6.80
2023-01-03T07:37:19.040Z,6.50
2023-01-03T07:39:46.985Z,6.10
2023-01-03T07:42:33.580Z,5.20
2023-01-03T07:45:01.846Z,7.80
2023-01-03T07:47:29.804Z,4.60
2023-01-03T07:49:57.614Z,6.30
2023-01-03T07:52:25.584Z,14.80
2023-01-03T07:54:53.532Z,14.70
2023-01-03T07:57:21.350Z,17.80
2023-01-03T07:59:49.364Z,25.40
2023-01-03T08:02:17.472Z,13.90
2023-01-03T08:04:45.471Z,4.60
2023-01-03T08:07:13.455Z,6.30
2023-01-03T08:10:13.387Z,12.50
2023-01-03T08:12:59.673Z,7.40
2023-01-03T08:15:27.575Z,9.10
2023-01-03T08:17:55.543Z,4.80
2023-01-03T08:20:23.421Z,5.70
2023-01-03T08:22:51.285Z,7.00
2023-01-03T08:25:19.090Z,6.30
2023-01-03T08:27:50.438Z,7.90
2023-01-03T08:30:18.779Z,11.70
2023-01-03T08:32:46.925Z,11.40
2023-01-03T08:35:16.209Z,5.80
2023-01-03T08:37:46.500Z,6.60
2023-01-03T08:40:17.814Z,5.70
2023-01-03T08:42:47.339Z,15.10
2023-01-03T08:45:17.989Z,6.80
2023-01-03T08:47:47.017Z,5.40
2023-01-03T08:50:15.776Z,2.90
2023-01-03T08:52:43.777Z,3.80
2023-01-03T08:55:11.679Z,6.50
2023-01-03T08:57:40.367Z,9.10
2023-01-03T09:00:08.965Z,4.10
2023-01-03T09:02:37.088Z,7.30
2023-01-03T09:05:05.500Z,4.70
2023-01-03T09:07:33.397Z,6.80
2023-01-03T09:10:01.319Z,8.20
2023-01-03T09:12:29.240Z,7.20
2023-01-03T09:14:57.504Z,9.00
2023-01-03T09:17:25.525Z,7.60
2023-01-03T09:19:53.477Z,7.50
2023-01-03T09:22:21.467Z,5.40
2023-01-03T09:24:49.412Z,5.30
2023-01-03T09:27:17.296Z,4.60
2023-01-03T09:29:45.193Z,6.20
2023-01-03T09:32:13.030Z,5.40
2023-01-03T09:34:40.949Z,5.40
2023-01-03T09:37:08.830Z,6.60
2023-01-03T09:39:36.830Z,4.50
2023-01-03T09:42:24.199Z,4.30
2023-01-03T09:44:53.245Z,3.80
2023-01-03T09:47:26.004Z,6.70
2023-01-03T09:53:04.043Z,6.50
2023-01-03T09:56:12.097Z,5.00
2023-01-03T09:58:59.929Z,5.00
2023-01-03T10:02:10.518Z,4.70
2023-01-03T10:05:03.078Z,3.70
2023-01-03T10:07:33.741Z,3.70
2023-01-03T10:10:29.815Z,5.10
2023-01-03T10:13:07.021Z,8.30
2023-01-03T10:16:06.787Z,12.30
2023-01-03T10:18:47.985Z,8.40
2023-01-03T10:21:52.166Z,11.70
2023-01-03T10:24:24.945Z,11.30
2023-01-03T10:27:13.708Z,7.20
2023-01-03T10:29:42.079Z,15.40
2023-01-03T10:32:18.118Z,11.90
2023-01-03T10:35:02.474Z,7.80
2023-01-03T10:37:30.446Z,10.20
2023-01-03T10:40:05.110Z,6.80
2023-01-03T10:42:35.319Z,4.70
2023-01-03T10:45:06.743Z,7.00
2023-01-03T10:47:34.609Z,3.90
2023-01-03T10:50:04.847Z,11.00
2023-01-03T10:52:41.609Z,23.00
2023-01-03T10:55:16.146Z,5.90
2023-01-03T10:57:53.305Z,4.90
2023-01-03T11:00:38.087Z,4.50
2023-01-03T11:03:09.744Z,4.90
2023-01-03T11:05:40.285Z,6.40
2023-01-03T11:08:21.482Z,2.70
2023-01-03T11:10:52.698Z,3.80
2023-01-03T11:15:55.833Z,2.60
2023-01-03T11:18:27.683Z,3.40
2023-01-03T11:21:23.696Z,4.40
2023-01-03T11:23:54.541Z,3.80
2023-01-03T11:26:46.534Z,3.20
2023-01-03T11:29:36.098Z,3.50
2023-01-03T11:32:21.775Z,6.20
2023-01-03T11:35:26.235Z,7.70
2023-01-03T11:42:39.765Z,5.30
2023-01-03T11:45:36.033Z,7.10
2023-01-03T11:52:01.982Z,18.00
2023-01-03T11:54:57.415Z,4.30
2023-01-03T11:57:43.405Z,7.50
2023-01-03T12:00:39.922Z,4.80
2023-01-03T12:03:24.734Z,14.50
2023-01-03T12:06:31.603Z,8.70
2023-01-03T12:09:23.140Z,8.00
2023-01-03T12:12:20.347Z,4.30
2023-01-03T12:14:54.222Z,3.40
2023-01-03T12:17:27.875Z,3.30
2023-01-03T12:20:11.723Z,2.60
2023-01-03T12:22:44.672Z,3.90
2023-01-03T12:25:30.148Z,6.60
2023-01-03T12:28:10.433Z,9.20
2023-01-03T12:30:48.420Z,6.20
2023-01-03T12:33:31.030Z,6.10
2023-01-03T12:36:06.107Z,4.30
2023-01-03T12:38:44.815Z,2.80
2023-01-03T12:41:59.705Z,4.80
2023-01-03T12:44:34.402Z,2.40
2023-01-03T12:47:03.795Z,2.60
2023-01-03T12:49:38.617Z,2.30
2023-01-03T12:52:16.691Z,2.30
2023-01-03T12:54:57.773Z,3.10
2023-01-03T12:57:50.855Z,3.00
2023-01-03T13:00:41.156Z,2.50
2023-01-03T13:03:35.708Z,2.80
2023-01-03T13:06:16.237Z,3.30
2023-01-03T13:08:53.555Z,2.90
2023-01-03T13:11:34.367Z,3.30
2023-01-03T13:14:19.737Z,2.90
2023-01-03T13:16:50.133Z,3.40
2023-01-03T13:19:24.214Z,3.50
2023-01-03T13:21:55.066Z,3.50
2023-01-03T13:24:52.597Z,2.90
2023-01-03T13:27:38.165Z,2.70
2023-01-03T13:30:22.153Z,3.80
2023-01-03T13:35:43.037Z,3.40
2023-01-03T13:38:39.168Z,2.80
2023-01-03T13:41:29.813Z,3.20
2023-01-03T13:44:08.385Z,4.30
2023-01-03T13:46:41.988Z,3.50
2023-01-03T13:51:45.247Z,4.20
2023-01-03T13:54:13.315Z,6.20
2023-01-03T13:56:44.384Z,4.40
2023-01-03T13:59:15.528Z,3.70
2023-01-03T14:02:21.377Z,4.70
2023-01-03T14:05:01.911Z,4.40
2023-01-03T14:07:54.895Z,3.80
2023-01-03T14:11:01.053Z,4.90
2023-01-03T14:13:48.027Z,4.20
2023-01-03T14:16:43.506Z,5.80
2023-01-03T14:19:25.712Z,4.00
2023-01-03T14:21:54.175Z,3.90
2023-01-03T14:24:26.695Z,3.60
2023-01-03T14:27:02.899Z,4.70
2023-01-03T14:29:31.282Z,3.80
2023-01-03T14:32:00.481Z,4.90
2023-01-03T14:34:33.639Z,5.70
2023-01-03T14:37:07.864Z,6.10
2023-01-03T14:42:06.621Z,6.40
2023-01-03T14:44:35.039Z,7.00
2023-01-03T14:47:07.501Z,7.90
2023-01-03T14:49:41.672Z,8.40
2023-01-03T14:52:21.151Z,6.50
2023-01-03T14:54:54.487Z,7.00
2023-01-03T14:57:27.478Z,5.10
2023-01-03T14:59:59.711Z,5.00
2023-01-03T15:02:34.231Z,6.80
2023-01-03T15:05:03.007Z,6.60
2023-01-03T15:07:43.242Z,7.60
2023-01-03T15:10:11.259Z,8.40
2023-01-03T15:12:43.946Z,7.80
2023-01-03T15:15:28.326Z,10.20
2023-01-03T15:18:01.468Z,13.00
2023-01-03T15:20:42.039Z,12.90
2023-01-03T15:23:34.615Z,12.00
2023-01-03T15:26:02.655Z,10.10
2023-01-03T15:28:36.535Z,14.70
2023-01-03T15:31:28.020Z,15.50
2023-01-03T15:34:13.858Z,12.00
2023-01-03T15:36:49.039Z,11.50
2023-01-03T15:39:23.537Z,12.00
2023-01-03T15:42:43.541Z,11.60
2023-01-03T15:45:19.415Z,10.20
2023-01-03T15:47:49.241Z,11.50
2023-01-03T15:50:19.530Z,12.00
2023-01-03T15:52:48.744Z,12.90
2023-01-03T15:55:17.409Z,10.80
2023-01-03T15:57:50.329Z,9.10
2023-01-03T16:00:21.802Z,8.80
2023-01-03T16:02:50.394Z,9.00
2023-01-03T16:05:22.448Z,8.90
2023-01-03T16:07:51.618Z,9.90
2023-01-03T16:10:21.716Z,13.10
2023-01-03T16:12:49.725Z,12.30
2023-01-03T16:15:22.041Z,14.40
2023-01-03T16:17:51.438Z,15.30
2023-01-03T16:20:20.018Z,18.70
2023-01-03T16:23:00.531Z,23.00
2023-01-03T16:25:29.569Z,28.10
2023-01-03T16:27:57.491Z,27.20
2023-01-03T16:30:25.521Z,27.90
2023-01-03T16:32:53.420Z,29.00
2023-01-03T16:35:21.526Z,30.20
2023-01-03T16:37:49.392Z,31.20
2023-01-03T16:40:20.535Z,25.00
2023-01-03T16:42:48.660Z,26.90
2023-01-03T16:45:17.677Z,32.70
2023-01-03T16:47:46.179Z,38.20
2023-01-03T16:50:19.111Z,34.70
2023-01-03T16:52:52.538Z,33.20
2023-01-03T16:55:34.887Z,29.10
2023-01-03T16:58:02.872Z,29.50
2023-01-03T17:00:33.554Z,25.20
2023-01-03T17:03:02.717Z,28.40
2023-01-03T17:05:36.180Z,31.70
2023-01-03T17:08:28.767Z,30.60
2023-01-03T17:10:58.523Z,28.20
2023-01-03T17:13:30.474Z,27.10
2023-01-03T17:16:00.744Z,28.40
2023-01-03T17:18:31.609Z,25.10
2023-01-03T17:21:27.987Z,29.80
2023-01-03T17:24:00.847Z,40.10
2023-01-03T17:26:31.538Z,46.20
2023-01-03T17:29:01.997Z,40.00
2023-01-03T17:31:30.368Z,33.40
2023-01-03T17:33:58.257Z,31.40
2023-01-03T17:36:30.006Z,44.60
2023-01-03T17:39:03.290Z,46.10
2023-01-03T17:41:51.698Z,42.50
2023-01-03T17:44:19.625Z,45.10
2023-01-03T17:47:06.670Z,44.50
2023-01-03T17:49:34.625Z,36.60
2023-01-03T17:52:08.938Z,34.10
2023-01-03T17:54:39.886Z,35.30
2023-01-03T17:57:12.776Z,34.50
2023-01-03T17:59:40.758Z,24.50
2023-01-03T18:02:21.755Z,28.80
2023-01-03T18:05:15.285Z,23.20
2023-01-03T18:07:38.932Z,25.30
2023-01-03T18:10:08.992Z,25.10
2023-01-03T18:12:36.940Z,26.50
2023-01-03T18:15:13.346Z,26.00
2023-01-03T18:17:41.629Z,46.60
2023-01-03T18:20:13.766Z,31.70
2023-01-03T18:22:42.859Z,40.40
2023-01-03T18:25:31.023Z,25.70
2023-01-03T18:28:02.140Z,27.10
2023-01-03T18:30:30.261Z,25.10
2023-01-03T18:32:58.198Z,23.60
2023-01-03T18:35:30.976Z,22.10
2023-01-03T18:38:02.014Z,23.00
2023-01-03T18:40:30.645Z,21.70
2023-01-03T18:43:09.335Z,22.60
2023-01-03T18:45:38.671Z,27.00
2023-01-03T18:48:12.222Z,32.60
2023-01-03T18:50:40.690Z,25.30
2023-01-03T18:53:37.751Z,22.50
2023-01-03T18:56:05.939Z,17.70
2023-01-03T18:58:39.817Z,16.80
2023-01-03T19:01:10.373Z,18.60
2023-01-03T19:03:42.498Z,22.40
2023-01-03T19:06:17.860Z,21.70
2023-01-03T19:08:46.789Z,18.60
2023-01-03T19:11:18.620Z,25.10
2023-01-03T19:13:53.320Z,22.30
2023-01-03T19:16:24.413Z,21.90
2023-01-03T19:18:53.381Z,22.70
2023-01-03T19:21:31.254Z,30.00
2023-01-03T19:24:04.281Z,34.30
2023-01-03T19:26:35.327Z,33.50
2023-01-03T19:29:06.134Z,30.30
2023-01-03T19:31:44.454Z,30.60
2023-01-03T19:34:16.510Z,31.90
2023-01-03T19:36:45.157Z,30.50
2023-01-03T19:39:13.917Z,31.40
2023-01-03T19:42:05.002Z,26.60
2023-01-03T19:44:33.935Z,26.40
2023-01-03T19:47:03.020Z,28.60
2023-01-03T19:49:30.942Z,30.00
2023-01-03T19:51:58.847Z,31.60
2023-01-03T19:54:26.788Z,32.80
2023-01-03T19:56:57.632Z,36.10
2023-01-03T19:59:29.679Z,39.90
2023-01-03T20:02:24.206Z,39.70
2023-01-03T20:04:46.185Z,39.60
2023-01-03T20:07:14.505Z,41.90
2023-01-03T20:09:42.508Z,42.90
2023-01-03T20:12:14.807Z,45.20
2023-01-03T20:14:51.464Z,46.10
2023-01-03T20:17:28.145Z,49.10
2023-01-03T20:19:56.032Z,51.60
2023-01-03T20:23:02.482Z,53.80
2023-01-03T20:25:24.443Z,48.20
2023-01-03T20:27:53.727Z,46.20
2023-01-03T20:30:24.220Z,40.80
2023-01-03T20:32:52.541Z,36.50
2023-01-03T20:38:12.337Z,31.40
2023-01-03T20:40:40.410Z,32.40
2023-01-03T20:43:13.464Z,30.50
2023-01-03T20:45:41.675Z,32.70
2023-01-03T20:48:20.845Z,33.70
2023-01-03T20:50:53.013Z,41.20
2023-01-03T20:53:24.319Z,43.50
2023-01-03T20:55:53.198Z,48.70
2023-01-03T20:58:25.446Z,52.00
2023-01-03T21:01:02.112Z,47.30
2023-01-03T21:03:33.882Z,42.90
2023-01-03T21:06:04.154Z,39.10
2023-01-03T21:08:51.116Z,37.20
2023-01-03T21:11:19.112Z,37.20
2023-01-03T21:13:47.064Z,39.60
2023-01-03T21:16:38.163Z,38.60
2023-01-03T21:19:17.635Z,34.80
2023-01-03T21:21:48.142Z,30.60
2023-01-03T21:24:18.852Z,30.00
2023-01-03T21:26:46.770Z,30.50
2023-01-03T21:29:15.056Z,30.70
2023-01-03T21:31:43.897Z,29.80
2023-01-03T21:34:19.980Z,28.60
2023-01-03T21:36:49.878Z,27.00
2023-01-03T21:39:17.853Z,27.20
2023-01-03T21:42:04.556Z,27.40
2023-01-03T21:44:32.499Z,24.40
2023-01-03T21:47:00.492Z,24.40
2023-01-03T21:49:28.448Z,21.60
2023-01-03T21:51:56.368Z,19.90
2023-01-03T21:54:24.359Z,20.60
2023-01-03T21:56:52.309Z,20.60
2023-01-03T21:59:20.201Z,20.10
2023-01-03T22:02:06.820Z,19.00
2023-01-03T22:04:35.489Z,18.60
2023-01-03T22:07:03.498Z,16.40
2023-01-03T22:09:50.594Z,17.10
2023-01-03T22:12:19.583Z,15.20
2023-01-03T22:14:48.028Z,15.20
2023-01-03T22:17:16.379Z,14.70
2023-01-03T22:19:44.463Z,14.70
2023-01-03T22:22:12.471Z,16.00
2023-01-03T22:24:40.447Z,14.90
2023-01-03T22:27:08.476Z,16.80
2023-01-03T22:29:36.377Z,16.70
2023-01-03T22:32:04.697Z,16.10
2023-01-03T22:34:32.777Z,15.10
2023-01-03T22:37:00.708Z,13.40
2023-01-03T22:39:28.662Z,14.30
2023-01-03T22:41:57.115Z,14.10
2023-01-03T22:44:25.247Z,15.20
2023-01-03T22:46:53.169Z,14.00
2023-01-03T22:49:21.090Z,12.50
2023-01-03T22:51:49.045Z,11.70
2023-01-03T22:54:16.955Z,11.70
2023-01-03T22:56:45.428Z,11.40
2023-01-03T22:59:13.406Z,10.80
2023-01-03T23:01:41.825Z,11.20
2023-01-03T23:04:10.313Z,12.40
2023-01-03T23:06:38.366Z,12.00
2023-01-03T23:09:06.331Z,11.90
2023-01-03T23:11:52.746Z,10.40
2023-01-03T23:14:23.751Z,10.50
2023-01-03T23:16:53.403Z,10.40
2023-01-03T23:19:24.826Z,11.40
2023-01-03T23:21:53.613Z,13.10
2023-01-03T23:24:24.508Z,12.60
2023-01-03T23:26:53.573Z,12.10
2023-01-03T23:29:22.306Z,13.30
2023-01-03T23:31:50.167Z,14.90
2023-01-03T23:34:18.168Z,19.30
2023-01-03T23:36:46.085Z,19.30
2023-01-03T23:39:16.561Z,23.20
2023-01-03T23:41:45.659Z,26.90
2023-01-03T23:44:13.709Z,25.90
2023-01-03T23:46:41.942Z,27.20
2023-01-03T23:49:13.401Z,27.00
2023-01-03T23:51:41.419Z,28.70
2023-01-03T23:54:10.456Z,25.70
2023-01-03T23:56:38.739Z,23.90
2023-01-03T23:59:06.705Z,21.30
